sensor_id;sensor_type;location;lat;lon;timestamp;pressure;altitude;pressure_sealevel;temperature;humidity
29163;BME280;20331;53.144;8.208;2023-02-12T00:02:55;103812.81;;;8.46;97.37
29163;BME280;20331;53.144;8.208;2023-02-12T00:13:16;103834.22;;;8.43;96.72
29163;BME280;20331;53.144;8.208;2023-02-12T00:23:38;103835.84;;;8.40;96.82
29163;BME280;20331;53.144;8.208;2023-02-12T00:34:01;103831.31;;;8.31;96.97
29163;BME280;20331;53.144;8.208;2023-02-12T00:44:22;103843.31;;;8.29;97.35
29163;BME280;20331;53.144;8.208;2023-02-12T00:54:44;103849.38;;;8.31;97.06
29163;BME280;20331;53.144;8.208;2023-02-12T01:05:05;103857.16;;;8.33;96.76
29163;BME280;20331;53.144;8.208;2023-02-12T01:15:27;103872.59;;;8.31;96.80
29163;BME280;20331;53.144;8.208;2023-02-12T01:25:48;103877.84;;;8.34;96.77
29163;BME280;20331;53.144;8.208;2023-02-12T01:36:10;103877.66;;;8.28;96.56
29163;BME280;20331;53.144;8.208;2023-02-12T01:46:31;103870.84;;;8.30;97.69
29163;BME280;20331;53.144;8.208;2023-02-12T01:56:53;103864.00;;;8.32;96.93
29163;BME280;20331;53.144;8.208;2023-02-12T02:07:14;103861.06;;;8.20;97.19
29163;BME280;20331;53.144;8.208;2023-02-12T02:17:49;103851.50;;;8.16;97.47
29163;BME280;20331;53.144;8.208;2023-02-12T02:28:28;103855.47;;;8.05;98.07
29163;BME280;20331;53.144;8.208;2023-02-12T02:39:02;103848.69;;;8.08;98.96
29163;BME280;20331;53.144;8.208;2023-02-12T02:49:30;103837.50;;;8.08;98.64
29163;BME280;20331;53.144;8.208;2023-02-12T02:59:54;103852.00;;;8.04;98.94
29163;BME280;20331;53.144;8.208;2023-02-12T03:10:19;103852.97;;;8.08;98.80
29163;BME280;20331;53.144;8.208;2023-02-12T03:20:50;103844.41;;;8.09;99.13
29163;BME280;20331;53.144;8.208;2023-02-12T03:42:09;103845.38;;;8.12;99.46
29163;BME280;20331;53.144;8.208;2023-02-12T03:52:33;103846.16;;;8.10;99.35
29163;BME280;20331;53.144;8.208;2023-02-12T04:02:55;103852.16;;;8.09;99.76
29163;BME280;20331;53.144;8.208;2023-02-12T04:13:25;103853.81;;;8.07;99.69
29163;BME280;20331;53.144;8.208;2023-02-12T04:23:50;103852.03;;;8.06;100.00
29163;BME280;20331;53.144;8.208;2023-02-12T04:34:24;103861.53;;;8.07;100.00
29163;BME280;20331;53.144;8.208;2023-02-12T04:44:46;103871.94;;;8.10;100.00
29163;BME280;20331;53.144;8.208;2023-02-12T04:55:08;103875.34;;;8.09;100.00
29163;BME280;20331;53.144;8.208;2023-02-12T05:05:29;103871.84;;;8.07;99.88
29163;BME280;20331;53.144;8.208;2023-02-12T05:15:51;103880.41;;;8.06;100.00
29163;BME280;20331;53.144;8.208;2023-02-12T05:26:13;103875.34;;;8.09;100.00
29163;BME280;20331;53.144;8.208;2023-02-12T05:36:35;103877.91;;;8.07;99.96
29163;BME280;20331;53.144;8.208;2023-02-12T05:46:56;103869.94;;;8.00;99.73
29163;BME280;20331;53.144;8.208;2023-02-12T05:57:17;103886.19;;;7.97;99.71
29163;BME280;20331;53.144;8.208;2023-02-12T06:07:39;103887.97;;;8.00;100.00
29163;BME280;20331;53.144;8.208;2023-02-12T06:18:00;103886.13;;;7.96;99.90
29163;BME280;20331;53.144;8.208;2023-02-12T06:28:22;103897.22;;;7.93;100.00
29163;BME280;20331;53.144;8.208;2023-02-12T06:38:43;103924.84;;;7.97;100.00
29163;BME280;20331;53.144;8.208;2023-02-12T06:49:05;103931.69;;;7.97;100.00
29163;BME280;20331;53.144;8.208;2023-02-12T06:59:26;103942.13;;;8.00;100.00
29163;BME280;20331;53.144;8.208;2023-02-12T07:09:47;103948.97;;;7.99;100.00
29163;BME280;20331;53.144;8.208;2023-02-12T07:20:09;103961.00;;;7.99;100.00
29163;BME280;20331;53.144;8.208;2023-02-12T07:30:30;103969.56;;;7.98;100.00
29163;BME280;20331;53.144;8.208;2023-02-12T07:40:52;103980.88;;;8.03;100.00
29163;BME280;20331;53.144;8.208;2023-02-12T07:51:14;103997.19;;;8.02;100.00
29163;BME280;20331;53.144;8.208;2023-02-12T08:01:41;103997.28;;;8.05;100.00
29163;BME280;20331;53.144;8.208;2023-02-12T08:12:02;104000.06;;;8.11;100.00
29163;BME280;20331;53.144;8.208;2023-02-12T08:22:24;104005.50;;;8.20;99.29
29163;BME280;20331;53.144;8.208;2023-02-12T08:32:47;104010.72;;;8.22;99.26
29163;BME280;20331;53.144;8.208;2023-02-12T08:43:09;104007.44;;;8.26;99.22
29163;BME280;20331;53.144;8.208;2023-02-12T08:53:30;104014.38;;;8.28;99.11
29163;BME280;20331;53.144;8.208;2023-02-12T09:03:52;104021.53;;;8.37;99.38
29163;BME280;20331;53.144;8.208;2023-02-12T09:14:14;104022.41;;;8.37;97.92
29163;BME280;20331;53.144;8.208;2023-02-12T09:24:36;104033.59;;;8.38;98.34
29163;BME280;20331;53.144;8.208;2023-02-12T09:34:57;104037.31;;;8.46;98.32
29163;BME280;20331;53.144;8.208;2023-02-12T09:45:19;104040.66;;;8.43;98.48
29163;BME280;20331;53.144;8.208;2023-02-12T09:55:41;104053.84;;;8.52;98.90
29163;BME280;20331;53.144;8.208;2023-02-12T10:06:04;104055.69;;;8.56;98.36
29163;BME280;20331;53.144;8.208;2023-02-12T10:26:59;104084.00;;;8.53;97.17
29163;BME280;20331;53.144;8.208;2023-02-12T10:47:48;104075.13;;;8.45;97.32
29163;BME280;20331;53.144;8.208;2023-02-12T10:58:21;104072.63;;;8.48;98.70
29163;BME280;20331;53.144;8.208;2023-02-12T11:08:43;104070.00;;;8.47;97.82
29163;BME280;20331;53.144;8.208;2023-02-12T11:19:19;104059.84;;;8.51;98.27
29163;BME280;20331;53.144;8.208;2023-02-12T11:29:41;104059.41;;;8.66;98.21
29163;BME280;20331;53.144;8.208;2023-02-12T11:40:03;104046.09;;;8.80;97.96
29163;BME280;20331;53.144;8.208;2023-02-12T11:50:28;104035.91;;;8.86;96.90
29163;BME280;20331;53.144;8.208;2023-02-12T12:00:52;104030.72;;;8.85;96.20
29163;BME280;20331;53.144;8.208;2023-02-12T12:11:19;104031.13;;;8.98;96.77
29163;BME280;20331;53.144;8.208;2023-02-12T12:21:47;104030.19;;;8.96;97.30
29163;BME280;20331;53.144;8.208;2023-02-12T12:32:14;104019.13;;;9.00;96.51
29163;BME280;20331;53.144;8.208;2023-02-12T13:14:16;103981.84;;;9.24;95.92
29163;BME280;20331;53.144;8.208;2023-02-12T13:24:44;103979.66;;;9.37;93.86
29163;BME280;20331;53.144;8.208;2023-02-12T13:35:07;103968.72;;;9.49;93.46
29163;BME280;20331;53.144;8.208;2023-02-12T13:56:33;103970.50;;;9.85;91.60
29163;BME280;20331;53.144;8.208;2023-02-12T14:06:54;103969.69;;;9.88;92.77
29163;BME280;20331;53.144;8.208;2023-02-12T14:27:54;103964.53;;;9.88;92.23
29163;BME280;20331;53.144;8.208;2023-02-12T14:49:00;103973.03;;;9.84;91.65
29163;BME280;20331;53.144;8.208;2023-02-12T14:59:26;103972.25;;;9.86;91.64
29163;BME280;20331;53.144;8.208;2023-02-12T15:09:59;103969.69;;;9.88;91.42
29163;BME280;20331;53.144;8.208;2023-02-12T15:20:32;103965.44;;;9.90;91.19
29163;BME280;20331;53.144;8.208;2023-02-12T15:30:54;103967.09;;;9.86;91.56
29163;BME280;20331;53.144;8.208;2023-02-12T15:41:27;103964.53;;;9.88;91.48
29163;BME280;20331;53.144;8.208;2023-02-12T15:51:49;103961.09;;;9.89;91.41
29163;BME280;20331;53.144;8.208;2023-02-12T16:02:19;103957.75;;;9.93;91.81
29163;BME280;20331;53.144;8.208;2023-02-12T16:12:41;103962.13;;;9.95;91.82
29163;BME280;20331;53.144;8.208;2023-02-12T16:23:04;103957.84;;;9.96;92.20
29163;BME280;20331;53.144;8.208;2023-02-12T17:04:49;103980.00;;;9.85;92.54
29163;BME280;20331;53.144;8.208;2023-02-12T17:15:12;103998.69;;;9.75;92.83
29163;BME280;20331;53.144;8.208;2023-02-12T17:25:37;104012.16;;;9.62;94.12
29163;BME280;20331;53.144;8.208;2023-02-12T17:35:59;104014.50;;;9.53;94.29
29163;BME280;20331;53.144;8.208;2023-02-12T17:46:21;104025.47;;;9.44;95.52
29163;BME280;20331;53.144;8.208;2023-02-12T17:56:43;104029.94;;;9.50;96.05
29163;BME280;20331;53.144;8.208;2023-02-12T18:07:06;104021.28;;;9.48;96.18
29163;BME280;20331;53.144;8.208;2023-02-12T18:17:28;104032.34;;;9.44;96.30
29163;BME280;20331;53.144;8.208;2023-02-12T18:27:49;104033.22;;;9.43;96.33
29163;BME280;20331;53.144;8.208;2023-02-12T18:38:11;104026.41;;;9.46;96.03
29163;BME280;20331;53.144;8.208;2023-02-12T18:48:32;104031.72;;;9.52;96.22
29163;BME280;20331;53.144;8.208;2023-02-12T18:58:57;104024.81;;;9.51;95.98
29163;BME280;20331;53.144;8.208;2023-02-12T19:09:19;104022.16;;;9.48;95.89
29163;BME280;20331;53.144;8.208;2023-02-12T19:19:41;104037.34;;;9.38;96.04
29163;BME280;20331;53.144;8.208;2023-02-12T19:30:03;104036.97;;;9.23;95.95
29163;BME280;20331;53.144;8.208;2023-02-12T19:40:25;104028.38;;;9.24;95.78
29163;BME280;20331;53.144;8.208;2023-02-12T19:50:46;104026.63;;;9.23;95.78
29163;BME280;20331;53.144;8.208;2023-02-12T20:01:09;104035.16;;;9.20;95.96
29163;BME280;20331;53.144;8.208;2023-02-12T20:11:32;104046.16;;;9.13;96.37
29163;BME280;20331;53.144;8.208;2023-02-12T20:21:58;104041.63;;;9.04;96.47
29163;BME280;20331;53.144;8.208;2023-02-12T20:32:21;104050.34;;;9.08;96.58
29163;BME280;20331;53.144;8.208;2023-02-12T20:42:42;104048.59;;;9.08;96.88
29163;BME280;20331;53.144;8.208;2023-02-12T20:53:04;104044.28;;;9.07;96.82
29163;BME280;20331;53.144;8.208;2023-02-12T21:03:26;104041.53;;;9.01;96.97
29163;BME280;20331;53.144;8.208;2023-02-12T21:13:48;104043.19;;;8.99;96.70
29163;BME280;20331;53.144;8.208;2023-02-12T21:24:23;104044.91;;;8.99;96.70
29163;BME280;20331;53.144;8.208;2023-02-12T21:34:45;104030.75;;;8.86;97.19
29163;BME280;20331;53.144;8.208;2023-02-12T21:45:09;104035.19;;;8.90;96.92
29163;BME280;20331;53.144;8.208;2023-02-12T21:55:30;104016.25;;;8.90;97.00
29163;BME280;20331;53.144;8.208;2023-02-12T22:05:51;104010.28;;;8.92;97.50
29163;BME280;20331;53.144;8.208;2023-02-12T22:16:22;104008.53;;;8.91;97.43
29163;BME280;20331;53.144;8.208;2023-02-12T22:26:44;103993.91;;;8.92;97.35
29163;BME280;20331;53.144;8.208;2023-02-12T22:37:06;104008.44;;;8.88;97.59
29163;BME280;20331;53.144;8.208;2023-02-12T22:47:27;104016.94;;;8.84;97.58
29163;BME280;20331;53.144;8.208;2023-02-12T22:57:52;104008.44;;;8.88;97.76
29163;BME280;20331;53.144;8.208;2023-02-12T23:08:13;104025.69;;;8.89;97.05
29163;BME280;20331;53.144;8.208;2023-02-12T23:18:34;104016.38;;;8.94;96.83
29163;BME280;20331;53.144;8.208;2023-02-12T23:28:56;104011.94;;;8.90;97.08
29163;BME280;20331;53.144;8.208;2023-02-12T23:39:18;104010.09;;;8.86;97.30
29163;BME280;20331;53.144;8.208;2023-02-12T23:49:39;104009.09;;;8.81;97.06
